Time;durP1;ratioP1;P1;durP2;ratioP2;P2;SDS_P1;SDS_P2;PMS_P1;PMS_P2;Temp;Humidity;BMP_temperature;BMP_pressure;BME280_temperature;BME280_humidity;BME280_pressure;Samples;Min_cycle;Max_cycle;Signal;HPM_P1;HPM_P2
2022/05/21 00:00:41;;;;;;;20.55;3.95;;;10.70;99.90;;;;;;5039077;28;20024;-73
2022/05/21 00:03:09;;;;;;;28.35;3.53;;;10.70;99.90;;;;;;5023962;28;20091;-73
2022/05/21 00:05:36;;;;;;;27.85;4.10;;;10.60;99.90;;;;;;5025927;28;20115;-72
2022/05/21 00:08:04;;;;;;;23.60;4.35;;;10.60;99.90;;;;;;5025859;28;20053;-73
2022/05/21 00:10:30;;;;;;;18.27;3.78;;;10.50;99.90;;;;;;5026518;28;20045;-73
2022/05/21 00:12:57;;;;;;;23.00;4.07;;;10.50;99.90;;;;;;5025474;28;20068;-73
2022/05/21 00:15:26;;;;;;;19.17;3.72;;;10.50;99.90;;;;;;5023900;28;20123;-73
2022/05/21 00:17:52;;;;;;;22.77;4.10;;;10.40;99.90;;;;;;5024280;28;20405;-73
2022/05/21 00:23:13;;;;;;;27.95;4.45;;;10.30;99.90;;;;;;5024512;28;20029;-72
2022/05/21 00:25:41;;;;;;;20.50;4.13;;;10.30;99.90;;;;;;5024351;28;20124;-73
2022/05/21 00:28:07;;;;;;;33.92;5.57;;;10.30;99.90;;;;;;5025363;28;20029;-73
2022/05/21 00:30:33;;;;;;;27.00;5.35;;;10.20;99.90;;;;;;5024602;28;20528;-73
2022/05/21 00:33:00;;;;;;;30.40;5.53;;;10.20;99.90;;;;;;5025658;28;20025;-73
2022/05/21 00:35:25;;;;;;;24.90;5.22;;;10.20;99.90;;;;;;5036881;28;20557;-73
2022/05/21 00:37:51;;;;;;;23.52;4.97;;;10.10;99.90;;;;;;5026012;28;20029;-73
2022/05/21 00:40:17;;;;;;;20.98;4.90;;;10.00;99.90;;;;;;5024254;28;20033;-74
2022/05/21 00:42:44;;;;;;;30.58;6.43;;;9.90;99.90;;;;;;5024625;28;20036;-74
2022/05/21 00:45:10;;;;;;;28.40;5.88;;;9.90;99.90;;;;;;5031259;28;20496;-74
2022/05/21 00:47:36;;;;;;;20.20;4.88;;;9.90;99.90;;;;;;5028289;28;20518;-74
2022/05/21 00:50:03;;;;;;;19.52;4.65;;;9.90;99.90;;;;;;5024892;28;20041;-74
2022/05/21 00:52:31;;;;;;;22.75;4.72;;;9.80;99.90;;;;;;5025248;28;20076;-74
2022/05/21 00:55:09;;;;;;;20.20;4.45;;;9.70;99.90;;;;;;5022663;28;20025;-73
2022/05/21 00:57:42;;;;;;;25.58;5.32;;;9.70;99.90;;;;;;5013883;28;20051;-74
2022/05/21 01:00:13;;;;;;;25.75;5.05;;;9.70;99.90;;;;;;5020883;28;20409;-74
2022/05/21 01:02:47;;;;;;;24.88;5.53;;;9.60;99.90;;;;;;5016209;28;20563;-74
2022/05/21 01:05:16;;;;;;;22.63;5.20;;;9.50;99.90;;;;;;5024638;28;20037;-73
2022/05/21 01:07:43;;;;;;;23.23;3.75;;;9.40;99.90;;;;;;5024318;28;20029;-74
2022/05/21 01:10:11;;;;;;;21.48;4.45;;;9.30;99.90;;;;;;5019564;28;20088;-74
2022/05/21 01:12:40;;;;;;;14.10;3.42;;;9.30;99.90;;;;;;5005264;28;20033;-73
2022/05/21 01:15:12;;;;;;;19.20;4.63;;;9.20;99.90;;;;;;5018159;28;20056;-74
2022/05/21 01:17:38;;;;;;;23.60;4.20;;;9.20;99.90;;;;;;5023274;28;20026;-73
2022/05/21 01:20:11;;;;;;;25.40;4.28;;;9.10;99.90;;;;;;5024020;28;20025;-73
2022/05/21 01:22:46;;;;;;;30.00;4.00;;;9.10;99.90;;;;;;5024580;28;20065;-73
2022/05/21 01:25:14;;;;;;;35.42;5.53;;;9.20;99.90;;;;;;5023259;28;20041;-73
2022/05/21 01:27:41;;;;;;;14.82;3.88;;;9.30;99.90;;;;;;5021470;28;20110;-73
2022/05/21 01:30:10;;;;;;;29.33;4.35;;;9.50;99.90;;;;;;5021348;28;20041;-73
2022/05/21 01:32:36;;;;;;;18.65;4.00;;;9.60;99.90;;;;;;5008792;28;20041;-73
2022/05/21 01:35:04;;;;;;;17.48;4.15;;;9.70;99.90;;;;;;5022419;28;20041;-73
2022/05/21 01:37:31;;;;;;;22.40;3.22;;;9.80;99.90;;;;;;5012600;28;20034;-73
2022/05/21 01:39:56;;;;;;;19.80;3.60;;;9.80;99.90;;;;;;5016030;28;20076;-73
2022/05/21 01:42:22;;;;;;;19.25;4.00;;;9.80;99.90;;;;;;5029745;28;20024;-73
2022/05/21 01:44:52;;;;;;;24.75;3.75;;;9.80;99.90;;;;;;5032262;28;20099;-73
2022/05/21 01:47:19;;;;;;;21.95;3.40;;;9.70;99.90;;;;;;5014697;28;20143;-73
2022/05/21 01:49:45;;;;;;;21.88;3.83;;;9.60;99.90;;;;;;5009616;28;20030;-73
2022/05/21 01:52:12;;;;;;;28.25;5.13;;;9.60;99.90;;;;;;5021852;28;20489;-73
2022/05/21 01:54:38;;;;;;;22.27;4.03;;;9.50;99.90;;;;;;5039701;28;20029;-73
2022/05/21 01:57:06;;;;;;;14.48;3.40;;;9.50;99.90;;;;;;5017687;28;20393;-73
2022/05/21 01:59:32;;;;;;;23.00;4.28;;;9.40;99.90;;;;;;5015476;28;20574;-73
2022/05/21 02:01:59;;;;;;;16.52;4.15;;;9.40;99.90;;;;;;5019412;28;20536;-73
2022/05/21 02:04:25;;;;;;;20.40;3.80;;;9.30;99.90;;;;;;5022754;28;20045;-73
2022/05/21 02:06:50;;;;;;;17.40;4.63;;;9.30;99.90;;;;;;5017724;28;20029;-73
2022/05/21 02:09:16;;;;;;;25.38;4.68;;;9.40;99.90;;;;;;5023382;28;20469;-73
2022/05/21 02:11:43;;;;;;;21.60;3.85;;;9.40;99.90;;;;;;5023675;28;20123;-73
2022/05/21 02:14:09;;;;;;;20.60;4.00;;;9.50;99.90;;;;;;5018926;28;20021;-73
2022/05/21 02:16:36;;;;;;;20.10;4.63;;;9.70;99.90;;;;;;5022008;28;20481;-73
2022/05/21 02:19:04;;;;;;;14.52;4.15;;;9.70;99.90;;;;;;5023146;28;20044;-73
2022/05/21 02:21:32;;;;;;;20.13;3.58;;;9.70;99.90;;;;;;5043382;28;20025;-73
2022/05/21 02:23:58;;;;;;;20.50;4.10;;;9.70;99.90;;;;;;5025063;28;20034;-73
2022/05/21 02:26:23;;;;;;;19.10;3.83;;;9.70;99.90;;;;;;5019581;28;20493;-73
2022/05/21 02:28:50;;;;;;;19.75;3.72;;;9.60;99.90;;;;;;5020605;28;20068;-72
2022/05/21 02:31:16;;;;;;;14.65;3.35;;;9.60;99.90;;;;;;5020678;28;20085;-72
2022/05/21 02:33:41;;;;;;;17.30;3.22;;;9.70;99.90;;;;;;5017766;28;20106;-73
2022/05/21 02:36:08;;;;;;;20.67;3.47;;;9.80;99.90;;;;;;5025471;28;20091;-73
2022/05/21 02:41:18;;;;;;;17.23;3.05;;;9.80;99.90;;;;;;5014419;28;20444;-73
2022/05/21 02:43:45;;;;;;;18.30;3.20;;;9.80;99.90;;;;;;5037815;28;20032;-73
2022/05/21 02:46:11;;;;;;;20.80;2.80;;;9.70;99.90;;;;;;5022476;28;20045;-73
2022/05/21 02:48:37;;;;;;;10.18;2.92;;;9.60;99.90;;;;;;5019641;28;20040;-73
2022/05/21 02:51:03;;;;;;;14.38;2.85;;;9.50;99.90;;;;;;5010952;28;20231;-73
2022/05/21 02:53:28;;;;;;;10.00;2.38;;;9.50;99.90;;;;;;5023523;28;20034;-73
2022/05/21 02:55:55;;;;;;;16.73;2.60;;;9.50;99.90;;;;;;5013022;28;20034;-73
2022/05/21 02:58:22;;;;;;;16.00;3.20;;;9.50;99.90;;;;;;5012884;28;20039;-72
2022/05/21 03:00:48;;;;;;;18.48;3.15;;;9.50;99.90;;;;;;5017224;28;20068;-72
2022/05/21 03:03:15;;;;;;;25.33;3.15;;;9.50;99.90;;;;;;5018552;28;20908;-73
2022/05/21 03:05:42;;;;;;;13.82;2.72;;;9.60;99.90;;;;;;5021535;28;20120;-73
2022/05/21 03:10:54;;;;;;;17.73;2.80;;;9.50;99.90;;;;;;5021892;28;20499;-72
2022/05/21 03:13:20;;;;;;;17.27;2.83;;;9.50;99.90;;;;;;5023178;28;20037;-73
2022/05/21 03:15:46;;;;;;;13.27;2.65;;;9.50;99.90;;;;;;5023295;28;20074;-73
2022/05/21 03:18:13;;;;;;;10.35;2.53;;;9.50;99.90;;;;;;5021534;28;20096;-73
2022/05/21 03:20:39;;;;;;;19.17;3.30;;;9.50;99.90;;;;;;5021645;28;20045;-73
2022/05/21 03:23:06;;;;;;;12.57;2.60;;;9.40;99.90;;;;;;5021593;28;20064;-73
2022/05/21 03:25:32;;;;;;;15.48;2.40;;;9.30;99.90;;;;;;5016083;28;20129;-73
2022/05/21 03:27:58;;;;;;;13.43;2.35;;;9.30;99.90;;;;;;5008412;28;20439;-73
2022/05/21 03:30:27;;;;;;;12.27;2.63;;;9.30;99.90;;;;;;5018944;28;20057;-73
2022/05/21 03:32:53;;;;;;;14.20;3.50;;;9.30;99.90;;;;;;5022744;28;20029;-73
2022/05/21 03:35:19;;;;;;;11.35;2.05;;;9.30;99.90;;;;;;5012886;28;20037;-73
2022/05/21 03:37:47;;;;;;;10.70;2.40;;;9.20;99.90;;;;;;5020215;28;20063;-73
2022/05/21 03:40:20;;;;;;;11.57;2.75;;;9.10;99.90;;;;;;5022532;28;20041;-73
2022/05/21 03:42:45;;;;;;;12.15;2.80;;;9.10;99.90;;;;;;5022484;28;20230;-73
2022/05/21 03:45:13;;;;;;;11.02;2.50;;;9.10;99.90;;;;;;5021059;28;20542;-73
2022/05/21 03:47:41;;;;;;;6.40;1.98;;;9.10;99.90;;;;;;5020770;28;20061;-73
2022/05/21 03:50:12;;;;;;;11.57;2.50;;;9.00;99.90;;;;;;5016100;28;20607;-73
2022/05/21 03:52:37;;;;;;;16.50;2.67;;;8.90;99.90;;;;;;5051800;28;20041;-73
2022/05/21 03:55:04;;;;;;;9.48;2.30;;;8.80;99.90;;;;;;5021124;28;20573;-73
2022/05/21 03:57:29;;;;;;;16.70;2.13;;;8.80;99.90;;;;;;5022195;28;20048;-72
2022/05/21 03:59:57;;;;;;;9.02;1.90;;;8.80;99.90;;;;;;5019819;28;20037;-72
2022/05/21 04:02:23;;;;;;;11.95;2.35;;;8.80;99.90;;;;;;5016700;28;20038;-72
2022/05/21 04:04:49;;;;;;;14.45;2.58;;;8.80;99.90;;;;;;5017723;28;20075;-73
2022/05/21 04:07:15;;;;;;;15.52;2.60;;;8.80;99.90;;;;;;5026127;28;20021;-72
2022/05/21 04:09:41;;;;;;;8.18;2.35;;;8.80;99.90;;;;;;5026235;28;20036;-72
2022/05/21 04:12:07;;;;;;;10.18;2.35;;;8.80;99.90;;;;;;5022406;28;20035;-73
2022/05/21 04:14:33;;;;;;;9.85;2.00;;;8.80;99.90;;;;;;5018437;28;20033;-73
2022/05/21 04:17:00;;;;;;;9.75;2.13;;;8.70;99.90;;;;;;5021369;28;20396;-72
2022/05/21 04:19:27;;;;;;;15.40;2.15;;;8.80;99.90;;;;;;5021668;28;20033;-72
2022/05/21 04:21:52;;;;;;;15.20;3.25;;;8.80;99.90;;;;;;5022623;28;20120;-72
2022/05/21 04:24:18;;;;;;;17.08;2.50;;;8.90;99.90;;;;;;5029281;28;20116;-72
2022/05/21 04:26:45;;;;;;;12.55;2.17;;;8.90;99.90;;;;;;5023749;28;20080;-73
2022/05/21 04:29:12;;;;;;;12.02;2.03;;;9.00;99.90;;;;;;5021683;28;20071;-73
2022/05/21 04:31:37;;;;;;;12.43;2.20;;;8.90;99.90;;;;;;5017755;28;20041;-73
2022/05/21 04:34:04;;;;;;;11.40;1.95;;;8.90;99.90;;;;;;5011852;28;20040;-72
2022/05/21 04:36:30;;;;;;;9.20;2.00;;;9.00;99.90;;;;;;5007396;28;20045;-73
2022/05/21 04:38:56;;;;;;;10.80;2.10;;;9.00;99.90;;;;;;5013034;28;20025;-73
2022/05/21 04:41:22;;;;;;;12.77;2.42;;;9.10;99.90;;;;;;5026435;28;20139;-72
2022/05/21 04:43:48;;;;;;;11.70;2.50;;;9.10;99.90;;;;;;5025838;28;20036;-73
2022/05/21 04:46:17;;;;;;;12.20;2.70;;;9.10;99.90;;;;;;5033360;28;20033;-72
2022/05/21 04:48:44;;;;;;;11.60;1.88;;;9.10;99.90;;;;;;5025788;28;20072;-72
2022/05/21 04:51:10;;;;;;;11.63;2.83;;;9.10;99.90;;;;;;5013327;28;20038;-73
2022/05/21 04:53:36;;;;;;;9.63;2.42;;;9.20;99.90;;;;;;5024565;28;20068;-72
2022/05/21 04:56:03;;;;;;;17.65;2.30;;;9.20;99.90;;;;;;5023875;28;20420;-73
2022/05/21 04:58:29;;;;;;;11.85;2.85;;;9.30;99.90;;;;;;5018320;28;20044;-73
2022/05/21 05:00:55;;;;;;;11.88;2.08;;;9.50;99.90;;;;;;5020501;28;20034;-72
2022/05/21 05:03:21;;;;;;;9.45;2.65;;;9.50;99.90;;;;;;5015380;28;20128;-72
2022/05/21 05:05:47;;;;;;;11.68;2.33;;;9.60;99.90;;;;;;5025295;28;20915;-73
2022/05/21 05:08:14;;;;;;;12.30;2.38;;;9.70;99.90;;;;;;5029418;28;20033;-73
2022/05/21 05:10:40;;;;;;;9.02;2.10;;;9.80;99.90;;;;;;5039069;28;20018;-72
2022/05/21 05:13:06;;;;;;;14.45;3.10;;;9.90;99.90;;;;;;5025894;28;20037;-72
2022/05/21 05:15:33;;;;;;;8.70;1.98;;;10.00;99.90;;;;;;5014367;28;20113;-72
2022/05/21 05:18:03;;;;;;;11.20;2.30;;;10.20;99.90;;;;;;5017987;28;20080;-72
2022/05/21 05:20:29;;;;;;;12.17;2.23;;;10.30;99.90;;;;;;5023648;28;20057;-72
2022/05/21 05:22:55;;;;;;;12.00;2.10;;;10.40;99.90;;;;;;5027094;28;20286;-73
2022/05/21 05:25:21;;;;;;;7.75;2.08;;;10.50;99.90;;;;;;5024180;28;20133;-73
2022/05/21 05:27:48;;;;;;;16.80;3.22;;;10.60;99.90;;;;;;5021813;28;20104;-72
2022/05/21 05:30:15;;;;;;;7.47;2.03;;;10.70;99.90;;;;;;5043942;28;20073;-72
2022/05/21 05:32:41;;;;;;;9.63;2.40;;;10.80;99.90;;;;;;5030256;28;20036;-73
2022/05/21 05:35:07;;;;;;;14.00;2.20;;;10.80;99.90;;;;;;5012075;28;20030;-73
2022/05/21 05:37:33;;;;;;;11.05;2.03;;;10.80;99.90;;;;;;5017150;28;20021;-73
2022/05/21 05:39:59;;;;;;;7.88;1.75;;;10.90;99.90;;;;;;5021193;28;20042;-72
2022/05/21 05:42:25;;;;;;;11.45;1.95;;;10.90;99.90;;;;;;5023657;28;20036;-73
2022/05/21 05:44:51;;;;;;;9.40;1.80;;;10.90;99.90;;;;;;5042629;28;20045;-72
2022/05/21 05:47:16;;;;;;;10.65;1.88;;;11.00;99.90;;;;;;5033905;28;20080;-73
2022/05/21 05:49:42;;;;;;;14.32;2.13;;;11.00;99.90;;;;;;5023510;28;20040;-73
2022/05/21 05:52:09;;;;;;;12.32;2.65;;;11.10;99.90;;;;;;5012410;28;20112;-72
2022/05/21 05:54:36;;;;;;;13.75;2.17;;;11.20;99.90;;;;;;5022450;28;20044;-72
2022/05/21 05:57:03;;;;;;;9.40;2.17;;;11.30;99.90;;;;;;5024210;28;20025;-72
2022/05/21 06:04:57;;;;;;;15.10;2.30;;;11.60;99.90;;;;;;5017707;28;20051;-72
2022/05/21 06:07:23;;;;;;;8.70;1.52;;;11.80;99.90;;;;;;5023507;28;20041;-72
2022/05/21 06:09:49;;;;;;;11.60;2.00;;;12.00;99.90;;;;;;5019672;28;20033;-72
2022/05/21 06:12:15;;;;;;;11.57;2.05;;;12.20;99.90;;;;;;5015245;28;20400;-72
2022/05/21 06:14:41;;;;;;;12.43;1.90;;;12.30;99.90;;;;;;5019369;28;20028;-71
2022/05/21 06:17:08;;;;;;;13.30;1.90;;;12.40;99.90;;;;;;5019652;28;20029;-73
2022/05/21 06:19:34;;;;;;;14.15;2.10;;;12.60;99.90;;;;;;5022012;28;20041;-73
2022/05/21 06:22:02;;;;;;;13.35;2.80;;;12.70;99.90;;;;;;5018790;28;20079;-73
2022/05/21 06:24:28;;;;;;;13.45;2.15;;;13.00;99.90;;;;;;5038720;28;20570;-72
2022/05/21 06:26:53;;;;;;;14.25;1.90;;;13.30;99.90;;;;;;5033779;28;20484;-72
2022/05/21 06:29:19;;;;;;;12.60;1.90;;;13.50;99.90;;;;;;5021129;28;20054;-73
2022/05/21 06:31:45;;;;;;;10.98;1.90;;;13.60;99.90;;;;;;5019995;28;20067;-72
2022/05/21 06:34:10;;;;;;;14.98;2.17;;;13.60;99.90;;;;;;5023881;28;20029;-73
2022/05/21 06:36:36;;;;;;;72.68;34.15;;;13.50;99.90;;;;;;5023366;28;20041;-72
2022/05/21 06:39:03;;;;;;;12.02;1.98;;;13.50;99.90;;;;;;5023498;28;20461;-73
2022/05/21 06:41:31;;;;;;;16.35;7.18;;;13.50;99.90;;;;;;5020791;28;20040;-73
2022/05/21 06:43:57;;;;;;;10.23;2.00;;;13.50;99.90;;;;;;5011665;28;20040;-73
2022/05/21 06:46:23;;;;;;;7.13;1.15;;;13.70;99.90;;;;;;5017271;28;20409;-73
2022/05/21 06:48:48;;;;;;;12.27;3.47;;;14.00;99.90;;;;;;5020791;28;20064;-73
2022/05/21 06:51:15;;;;;;;17.65;2.63;;;14.20;99.90;;;;;;5019642;28;20492;-73
2022/05/21 06:53:41;;;;;;;17.50;5.97;;;14.20;99.90;;;;;;5012931;28;20029;-73
2022/05/21 06:56:08;;;;;;;10.38;2.28;;;14.20;99.90;;;;;;5019370;28;20041;-73
2022/05/21 06:58:34;;;;;;;10.93;2.65;;;14.30;99.90;;;;;;5021016;28;20543;-73
2022/05/21 07:01:00;;;;;;;10.77;1.92;;;14.40;99.90;;;;;;5022413;28;20026;-74
2022/05/21 07:03:25;;;;;;;10.57;1.77;;;14.70;99.90;;;;;;5021807;28;20048;-73
2022/05/21 07:08:36;;;;;;;52.10;35.25;;;15.00;99.90;;;;;;5019664;28;20122;-74
2022/05/21 07:11:02;;;;;;;11.85;1.90;;;15.40;99.90;;;;;;5019060;28;20033;-75
2022/05/21 07:13:30;;;;;;;6.18;1.42;;;15.40;99.90;;;;;;5023032;28;20025;-73
2022/05/21 07:15:57;;;;;;;11.18;1.63;;;15.50;99.90;;;;;;5029849;28;20060;-75
2022/05/21 07:18:24;;;;;;;10.38;1.85;;;15.40;99.90;;;;;;5018789;28;20116;-74
2022/05/21 07:20:51;;;;;;;10.90;1.58;;;15.40;99.90;;;;;;5022188;28;20064;-74
2022/05/21 07:23:17;;;;;;;11.05;1.83;;;15.30;99.90;;;;;;5031048;28;20072;-75
2022/05/21 07:25:44;;;;;;;12.23;4.63;;;15.30;99.90;;;;;;5022838;28;20033;-75
2022/05/21 07:28:09;;;;;;;7.65;1.70;;;15.50;99.90;;;;;;5020188;28;20867;-75
2022/05/21 07:30:36;;;;;;;11.82;1.90;;;15.70;99.90;;;;;;5017805;28;20085;-74
2022/05/21 07:33:03;;;;;;;10.05;1.98;;;16.30;99.90;;;;;;5017104;28;20025;-74
2022/05/21 07:35:29;;;;;;;12.80;1.92;;;16.70;99.60;;;;;;5017009;28;20438;-75
2022/05/21 07:37:55;;;;;;;12.00;1.52;;;17.50;98.90;;;;;;5005615;28;20029;-75
2022/05/21 07:40:24;;;;;;;9.15;1.90;;;17.80;98.60;;;;;;5019109;28;20025;-75
2022/05/21 07:42:50;;;;;;;11.52;1.42;;;17.80;97.30;;;;;;5013164;28;20052;-75
2022/05/21 07:45:17;;;;;;;9.63;1.70;;;18.20;95.40;;;;;;5022690;28;20112;-74
2022/05/21 07:47:43;;;;;;;9.30;1.50;;;19.00;93.90;;;;;;5024030;28;20508;-74
2022/05/21 07:50:09;;;;;;;5.88;1.13;;;20.00;91.50;;;;;;5023168;28;20060;-75
2022/05/21 07:52:35;;;;;;;8.80;1.52;;;21.90;82.70;;;;;;5011381;28;20584;-75
2022/05/21 07:55:01;;;;;;;7.13;1.20;;;23.80;75.10;;;;;;5009021;28;20033;-75
2022/05/21 07:57:26;;;;;;;7.88;1.65;;;25.10;67.20;;;;;;5010104;28;20511;-75
2022/05/21 07:59:52;;;;;;;7.97;1.60;;;26.00;61.50;;;;;;5010377;28;21664;-75
2022/05/21 08:02:19;;;;;;;6.05;1.33;;;27.10;59.00;;;;;;5017956;28;20673;-75
2022/05/21 08:04:47;;;;;;;8.70;1.63;;;28.60;52.50;;;;;;5020460;28;20034;-75
2022/05/21 08:07:13;;;;;;;8.18;1.30;;;29.70;47.40;;;;;;5031569;28;20021;-75
2022/05/21 08:09:39;;;;;;;6.57;1.38;;;30.10;45.10;;;;;;5029780;28;20373;-75
2022/05/21 08:12:11;;;;;;;9.93;2.17;;;30.80;41.90;;;;;;5028309;28;20032;-76
2022/05/21 08:14:36;;;;;;;7.32;1.35;;;28.70;47.70;;;;;;5013644;28;20037;-75
2022/05/21 08:17:02;;;;;;;6.18;1.67;;;29.00;45.60;;;;;;5023146;28;20114;-75
2022/05/21 08:19:28;;;;;;;7.10;1.45;;;28.60;47.70;;;;;;5012733;28;20037;-77
2022/05/21 08:26:56;;;;;;;8.63;1.45;;;28.30;43.80;;;;;;5026904;28;20025;-75
2022/05/21 08:27:23;;;;;;;8.13;1.30;;;25.40;50.40;;;;;;5013471;28;20067;-75
2022/05/21 08:29:49;;;;;;;5.35;1.65;;;24.60;51.10;;;;;;5013288;28;20081;-75
2022/05/21 08:32:17;;;;;;;11.05;1.70;;;23.50;53.90;;;;;;5024389;28;20034;-77
2022/05/21 08:34:42;;;;;;;5.60;1.52;;;24.10;56.30;;;;;;5022349;28;20814;-76
2022/05/21 08:37:08;;;;;;;7.78;1.17;;;25.10;53.00;;;;;;5016830;28;20049;-75
2022/05/21 08:39:36;;;;;;;5.43;1.25;;;26.30;60.20;;;;;;5015906;28;20036;-76
2022/05/21 08:42:14;;;;;;;9.38;1.48;;;29.10;51.10;;;;;;5019857;28;20563;-77
2022/05/21 08:44:48;;;;;;;5.63;1.23;;;28.10;44.80;;;;;;5014260;28;20566;-77
2022/05/21 08:47:25;;;;;;;4.18;1.15;;;27.50;48.70;;;;;;5010054;28;20034;-78
2022/05/21 08:49:59;;;;;;;6.07;1.15;;;26.80;51.10;;;;;;5012073;28;20385;-76
2022/05/21 08:52:29;;;;;;;11.30;2.22;;;26.50;50.50;;;;;;5010538;28;20107;-76
2022/05/21 08:54:58;;;;;;;6.43;1.73;;;26.40;50.10;;;;;;5008426;28;20037;-74
2022/05/21 08:57:44;;;;;;;8.25;1.27;;;25.90;48.40;;;;;;5005051;28;20029;-77
2022/05/21 09:00:24;;;;;;;4.60;1.13;;;25.30;51.50;;;;;;5006365;28;20025;-77
2022/05/21 09:02:51;;;;;;;9.13;1.15;;;25.10;51.60;;;;;;5002888;28;20029;-76
2022/05/21 09:05:19;;;;;;;9.20;1.10;;;25.20;51.40;;;;;;5018224;28;21018;-78
2022/05/21 09:07:57;;;;;;;5.70;1.13;;;25.90;49.50;;;;;;5006585;28;20044;-78
2022/05/21 09:10:50;;;;;;;6.90;0.88;;;26.10;50.30;;;;;;5007564;28;20025;-76
2022/05/21 09:13:27;;;;;;;5.03;1.02;;;25.90;50.00;;;;;;5020732;28;20044;-75
2022/05/21 09:18:37;;;;;;;6.05;0.93;;;25.30;49.50;;;;;;5020389;28;20313;-79
2022/05/21 09:21:16;;;;;;;10.18;0.93;;;24.90;48.80;;;;;;5021930;28;20483;-79
2022/05/21 09:23:46;;;;;;;8.27;1.30;;;25.50;55.20;;;;;;5021228;28;20041;-77
2022/05/21 09:26:12;;;;;;;7.75;1.25;;;25.50;49.40;;;;;;5019732;28;20585;-76
2022/05/21 09:28:39;;;;;;;4.93;1.38;;;25.40;49.60;;;;;;5019146;28;20043;-76
2022/05/21 09:31:06;;;;;;;6.28;0.90;;;25.30;53.50;;;;;;5012958;28;20124;-78
2022/05/21 09:33:43;;;;;;;5.28;1.20;;;25.30;48.30;;;;;;5017896;28;20029;-76
2022/05/21 09:36:18;;;;;;;3.67;0.90;;;26.30;47.60;;;;;;5020970;28;20086;-78
2022/05/21 09:38:51;;;;;;;8.05;1.33;;;25.80;54.20;;;;;;5024394;28;20080;-78
2022/05/21 09:41:32;;;;;;;6.28;1.10;;;25.40;51.50;;;;;;5024787;28;20045;-78
2022/05/21 09:47:15;;;;;;;7.00;1.27;;;25.20;52.70;;;;;;5005635;28;20604;-79
2022/05/21 09:49:42;;;;;;;6.43;1.35;;;25.20;50.60;;;;;;5024426;28;20524;-84
2022/05/21 09:52:20;;;;;;;5.70;1.20;;;25.20;52.80;;;;;;5025464;28;20071;-78
2022/05/21 09:54:46;;;;;;;6.43;1.00;;;25.30;49.60;;;;;;5021736;28;20026;-78
2022/05/21 09:57:43;;;;;;;5.95;1.10;;;25.60;55.30;;;;;;5026068;28;20040;-78
2022/05/21 10:00:30;;;;;;;6.63;0.85;;;26.00;45.90;;;;;;5020424;28;20112;-81
2022/05/21 10:03:06;;;;;;;5.20;1.40;;;25.90;48.90;;;;;;5017701;28;20068;-78
2022/05/21 10:05:45;;;;;;;6.20;1.30;;;26.10;56.10;;;;;;5019211;28;20048;-77
2022/05/21 10:11:20;;;;;;;4.72;1.25;;;27.00;44.10;;;;;;5015422;28;20534;-79
2022/05/21 10:14:00;;;;;;;3.50;1.05;;;26.80;48.80;;;;;;5024090;28;20030;-81
2022/05/21 10:16:57;;;;;;;5.95;1.55;;;27.10;49.60;;;;;;5023508;28;20831;-79
2022/05/21 10:20:01;;;;;;;5.93;1.10;;;27.30;51.20;;;;;;5014391;28;20041;-79
2022/05/21 10:22:51;;;;;;;5.30;1.20;;;28.30;52.40;;;;;;4961992;28;20039;-78
2022/05/21 10:25:20;;;;;;;5.65;1.15;;;28.90;49.10;;;;;;4999969;28;20068;-79
2022/05/21 10:28:07;;;;;;;8.15;1.73;;;29.70;43.70;;;;;;5021756;28;20072;-80
2022/05/21 10:30:39;;;;;;;5.55;1.05;;;29.30;43.30;;;;;;5020335;28;20065;-75
2022/05/21 10:33:16;;;;;;;7.22;1.17;;;28.40;44.10;;;;;;5016348;28;20072;-72
2022/05/21 10:36:00;;;;;;;5.93;1.58;;;28.50;41.20;;;;;;5018561;28;20036;-75
2022/05/21 10:38:48;;;;;;;4.63;1.33;;;28.50;44.80;;;;;;5016760;28;20025;-75
2022/05/21 10:41:44;;;;;;;6.65;1.45;;;28.40;44.30;;;;;;5021901;28;20091;-74
2022/05/21 10:44:37;;;;;;;6.57;1.30;;;29.00;47.80;;;;;;5017981;28;20564;-75
2022/05/21 10:47:06;;;;;;;5.03;1.30;;;28.30;44.80;;;;;;5022745;28;20041;-75
2022/05/21 10:49:44;;;;;;;4.15;0.80;;;27.10;47.50;;;;;;5022964;28;20025;-73
2022/05/21 10:52:15;;;;;;;9.80;1.73;;;26.60;48.10;;;;;;5023267;28;20036;-73
2022/05/21 10:54:46;;;;;;;8.23;1.70;;;26.40;47.50;;;;;;5021118;28;20029;-77
2022/05/21 10:57:12;;;;;;;;;;;25.70;50.40;;;;;;5019378;28;20563;-76
2022/05/21 11:00:13;;;;;;;9.20;1.65;;;26.10;61.00;;;;;;5020778;28;19959;-78
2022/05/21 11:02:58;;;;;;;6.75;1.63;;;26.50;50.50;;;;;;5022033;28;20496;-76
2022/05/21 11:05:56;;;;;;;6.03;1.77;;;26.40;49.20;;;;;;5021827;28;20180;-74
2022/05/21 11:08:31;;;;;;;7.53;1.40;;;25.50;50.30;;;;;;5015424;28;20029;-74
2022/05/21 11:11:13;;;;;;;7.53;1.70;;;25.40;56.60;;;;;;5020038;28;20076;-75
2022/05/21 11:13:57;;;;;;;10.50;1.95;;;26.40;56.20;;;;;;5006345;28;20113;-75
2022/05/21 11:16:32;;;;;;;8.35;1.80;;;27.10;56.00;;;;;;5020116;28;20073;-76
2022/05/21 11:19:06;;;;;;;8.57;1.83;;;27.50;52.80;;;;;;5012233;28;20033;-75
2022/05/21 11:21:39;;;;;;;7.80;1.60;;;27.60;47.30;;;;;;5005565;28;20032;-75
2022/05/21 11:24:20;;;;;;;8.15;1.27;;;27.50;48.60;;;;;;5017046;28;20048;-74
2022/05/21 11:26:58;;;;;;;8.90;1.70;;;27.20;50.20;;;;;;5019752;28;20110;-72
2022/05/21 11:29:29;;;;;;;6.85;1.30;;;26.40;48.90;;;;;;5020834;28;20033;-72
2022/05/21 11:37:50;;;;;;;6.47;1.50;;;25.30;57.30;;;;;;5022208;28;20044;-72
2022/05/21 11:43:57;;;;;;;8.10;1.27;;;24.70;55.60;;;;;;5015013;28;20503;-71
2022/05/21 11:46:39;;;;;;;10.10;0.98;;;24.00;57.30;;;;;;5019507;28;20049;-73
2022/05/21 11:49:27;;;;;;;8.27;1.67;;;24.50;66.20;;;;;;5020531;28;20579;-73
2022/05/21 11:51:54;;;;;;;7.07;1.55;;;24.30;58.30;;;;;;5019013;28;20040;-73
2022/05/21 11:54:45;;;;;;;4.82;1.45;;;24.40;59.10;;;;;;5021255;28;20046;-74
2022/05/21 11:57:11;;;;;;;11.00;1.52;;;24.10;67.10;;;;;;5006333;28;20049;-78
2022/05/21 11:59:53;;;;;;;6.63;1.23;;;23.80;53.80;;;;;;5014174;28;20100;-77
2022/05/21 12:02:23;;;;;;;7.82;2.10;;;22.90;67.00;;;;;;5020739;28;20044;-83
2022/05/21 12:04:55;;;;;;;8.52;2.03;;;22.70;61.10;;;;;;5018647;28;20044;-76
2022/05/21 12:07:42;;;;;;;7.45;1.35;;;23.00;70.20;;;;;;5010447;28;20034;-82
2022/05/21 12:11:02;;;;;;;7.40;1.27;;;23.80;61.50;;;;;;5016009;28;20037;-81
2022/05/21 12:13:33;;;;;;;10.13;1.80;;;24.30;77.10;;;;;;5009873;28;20124;-78
2022/05/21 12:16:19;;;;;;;7.90;1.48;;;24.10;61.50;;;;;;5017365;28;20485;-82
2022/05/21 12:18:46;;;;;;;7.90;1.50;;;24.00;61.80;;;;;;5018869;28;20098;-82
2022/05/21 12:21:32;;;;;;;10.00;2.38;;;23.60;60.00;;;;;;5008161;28;20022;-78
2022/05/21 12:24:02;;;;;;;10.32;1.92;;;23.50;64.10;;;;;;5029710;28;20025;-82
2022/05/21 12:26:34;;;;;;;7.00;1.43;;;23.10;68.20;;;;;;5014486;28;20091;-79
2022/05/21 12:29:07;;;;;;;10.23;1.73;;;24.30;69.50;;;;;;5020178;28;20111;-78
2022/05/21 12:31:43;;;;;;;9.10;2.22;;;25.10;60.50;;;;;;5011574;28;20036;-76
2022/05/21 12:34:23;;;;;;;6.45;1.80;;;25.60;61.10;;;;;;5010759;28;20052;-82
2022/05/21 12:37:10;;;;;;;8.32;1.58;;;24.90;56.70;;;;;;5016260;28;20038;-78
2022/05/21 12:40:01;;;;;;;8.77;1.63;;;24.40;64.30;;;;;;5035659;28;20057;-83
2022/05/21 12:42:53;;;;;;;7.32;1.33;;;23.60;58.10;;;;;;5018203;28;20033;-78
2022/05/21 12:45:47;;;;;;;3.88;1.25;;;23.40;68.10;;;;;;5016788;28;20045;-82
2022/05/21 12:48:31;;;;;;;4.28;0.82;;;23.20;66.40;;;;;;5013352;28;20101;-77
2022/05/21 12:50:59;;;;;;;8.63;1.05;;;23.10;64.00;;;;;;5005631;28;20029;-75
2022/05/21 12:53:34;;;;;;;5.75;1.23;;;23.20;64.20;;;;;;5019510;28;20724;-75
2022/05/21 12:56:05;;;;;;;5.43;1.10;;;23.00;59.40;;;;;;5017108;28;20033;-77
2022/05/21 12:58:31;;;;;;;4.82;1.02;;;22.40;60.90;;;;;;5017688;28;20082;-75
2022/05/21 13:00:57;;;;;;;8.20;1.80;;;22.40;68.60;;;;;;5021828;28;20056;-76
2022/05/21 13:03:25;;;;;;;8.75;1.48;;;21.90;63.00;;;;;;5023454;28;20033;-79
2022/05/21 13:06:00;;;;;;;7.88;2.05;;;21.60;69.50;;;;;;5019391;28;20033;-76
2022/05/21 13:08:28;;;;;;;9.02;2.05;;;21.70;74.40;;;;;;5017591;28;20029;-77
2022/05/21 13:11:19;;;;;;;8.25;1.77;;;21.70;68.40;;;;;;5021008;28;20417;-78
2022/05/21 13:13:53;;;;;;;11.17;1.77;;;21.40;74.40;;;;;;5021395;28;20071;-78
2022/05/21 13:16:19;;;;;;;7.60;1.80;;;21.90;74.80;;;;;;5015456;28;20038;-76
2022/05/21 13:19:23;;;;;;;7.28;1.63;;;22.20;75.80;;;;;;5019418;28;20120;-74
2022/05/21 13:22:16;;;;;;;12.23;2.00;;;22.00;65.50;;;;;;4664156;28;10000090;-75
2022/05/21 13:24:58;;;;;;;7.03;1.98;;;22.00;63.80;;;;;;5019989;28;20057;-74
2022/05/21 13:27:24;;;;;;;;;;;21.90;68.10;;;;;;5019550;28;20025;-73
2022/05/21 13:29:51;;;;;;;8.85;1.60;;;21.80;60.40;;;;;;5002058;28;21093;-77
2022/05/21 13:32:27;;;;;;;11.27;2.17;;;21.80;76.40;;;;;;5013078;28;20247;-73
2022/05/21 13:34:55;;;;;;;10.55;1.88;;;21.70;72.60;;;;;;5018489;28;20022;-74
2022/05/21 13:37:41;;;;;;;12.90;1.80;;;21.60;71.90;;;;;;5020426;28;20033;-74
2022/05/21 13:40:14;;;;;;;10.70;1.77;;;21.60;70.10;;;;;;5017427;28;20068;-77